METAR AND TAF INFORMATION
METAR FOR UTDK
ADDS - METARS form results

(0547 UTC 29 September 2022)
Data provider http://aviationweather.gov/metar/data/
 
METAR text: UTDK 290530Z 19003MPS 160V240 9999 NSC 27/05 Q1013 R01/09//70 RMK QFE703/0937
Conditions at: UTDK (KOLUB , TJ) observed 0530 UTC 29 September 2022
Temperature: 27.0°C (81°F)
Dewpoint: 5.0°C (41°F) [RH = 24%]
Pressure (altimeter): 29.91 inches Hg (1013.0 mb)
Winds: from the S (190 degrees) at 7 MPH (6 knots; 3.1 m/s)
Visibility: 6 or more miles (10+ km)
Ceiling: at least 12,000 feet AGL
Clouds: sky clear below 12,000 feet AGL
Weather: no significant weather observed at this time

METAR text: UTDK 290500Z 18003MPS 150V210 9999 NSC 27/06 Q1014 R01/09//70 RMK QFE703/0937
Conditions at: UTDK (KOLUB , TJ) observed 0500 UTC 29 September 2022
Temperature: 27.0°C (81°F)
Dewpoint: 6.0°C (43°F) [RH = 26%]
Pressure (altimeter): 29.94 inches Hg (1014.0 mb)
Winds: from the S (180 degrees) at 7 MPH (6 knots; 3.1 m/s)
Visibility: 6 or more miles (10+ km)
Ceiling: at least 12,000 feet AGL
Clouds: sky clear below 12,000 feet AGL
Weather: no significant weather observed at this time

Forecast for: UTDK (KOLUB , TJ)
Text: TAF UTDK 290300Z 2904/2913 VRB02MPS 6000 FEW066CB SCT100
Forecast period: 0400 to 1300 UTC 29 September 2022
Forecast type: FROM: standard forecast or significant change
Winds: variable direction winds at 5 MPH (4 knots; 2.1 m/s)
Visibility: 4 miles (6 km)
Ceiling: at least 12,000 feet AGL
Clouds: few clouds at 6600 feet AGL
scattered clouds at 10000 feet AGL
Weather: no significant weather forecast for this period
Text: TEMPO 2907/2913 21006MPS
Forecast period: 0700 to 1300 UTC 29 September 2022
Forecast type: TEMPORARY: The following changes expected for less than half the time period
Winds: from the SSW (210 degrees) at 14 MPH (12 knots; 6.2 m/s)
Visibility: missing
Ceiling: unknown
Clouds: missing
Weather: no significant weather forecast for this period

 AIRPORT MAP

 RUNWAY INFORMATION
Runway 01 Runway length 9843 ft Runway width 137 ft
Runway elevation 2149 ft Runway displaced threshold 0 ft Runway heading 17
Runway 19 Runway length 9843 ft Runway width 137 ft
Runway elevation 2293 ft Runway displaced threshold 0 ft Runway heading 197

 AIRPORT FREQUENCIES
Type TWR Name TWR Frequency 118.5 MHZ

 AIRPORT NEAR NAVIGATION AIDS
Type NDB Name Kulyab Frequency 298 KHZ





Powered by Virtual Airlines Manager

Maps by Rafael Santos